Time;durP1;ratioP1;P1;durP2;ratioP2;P2;SDS_P1;SDS_P2;PMS_P1;PMS_P2;Temp;Humidity;BMP_temperature;BMP_pressure;BME280_temperature;BME280_humidity;BME280_pressure;Samples;Min_cycle;Max_cycle;Signal;HPM_P1;HPM_P2
2022/09/03 00:02:01;;;;;;;0.80;0.80;;;;;;;;;;8281214;28;20040;-70
2022/09/03 00:06:08;;;;;;;0.88;0.88;;;;;;;;;;8282952;28;20034;-71
2022/09/03 00:10:11;;;;;;;0.80;0.80;;;;;;;;;;8281926;28;20052;-70
2022/09/03 00:14:14;;;;;;;1.55;1.00;;;;;;;;;;8269829;28;20149;-70
2022/09/03 00:18:19;;;;;;;1.67;0.90;;;;;;;;;;8283153;28;20045;-70
2022/09/03 00:22:25;;;;;;;0.80;0.80;;;;;;;;;;8282260;28;20063;-70
2022/09/03 00:26:28;;;;;;;1.15;0.80;;;;;;;;;;8280143;28;20600;-70
2022/09/03 00:30:29;;;;;;;2.05;0.77;;;;;;;;;;8282747;28;20029;-70
2022/09/03 00:34:33;;;;;;;1.00;1.00;;;;;;;;;;8282697;28;20083;-70
2022/09/03 00:38:33;;;;;;;1.30;0.80;;;;;;;;;;8281451;28;20625;-70
2022/09/03 00:42:42;;;;;;;4.22;1.02;;;;;;;;;;8279945;28;20147;-70
2022/09/03 00:46:45;;;;;;;2.88;0.95;;;;;;;;;;8282403;28;20063;-70
2022/09/03 00:50:59;;;;;;;1.02;0.80;;;;;;;;;;8278284;28;20033;-71
2022/09/03 00:54:59;;;;;;;;;;;;;;;;;;8264639;28;20087;-71
2022/09/03 00:59:09;;;;;;;2.42;1.00;;;;;;;;;;8280874;28;19913;-71
2022/09/03 01:03:22;;;;;;;1.27;0.90;;;;;;;;;;8281625;28;20064;-71
2022/09/03 01:07:45;;;;;;;2.63;0.93;;;;;;;;;;8281024;28;20367;-71
2022/09/03 01:12:01;;;;;;;1.00;0.90;;;;;;;;;;8286108;28;20120;-71
2022/09/03 01:16:01;;;;;;;2.97;0.90;;;;;;;;;;8285851;28;20379;-71
2022/09/03 01:20:07;;;;;;;0.82;0.82;;;;;;;;;;8286824;28;20604;-71
2022/09/03 01:24:17;;;;;;;1.10;0.90;;;;;;;;;;8287467;28;20668;-70
2022/09/03 01:28:24;;;;;;;3.00;0.90;;;;;;;;;;8289188;28;20435;-70
2022/09/03 01:32:28;;;;;;;1.20;0.95;;;;;;;;;;8273255;28;20038;-70
2022/09/03 01:36:33;;;;;;;1.05;0.90;;;;;;;;;;8287397;28;20025;-70
2022/09/03 01:40:52;;;;;;;0.93;0.90;;;;;;;;;;8278744;28;20480;-70
2022/09/03 01:45:10;;;;;;;3.15;1.00;;;;;;;;;;8277238;28;20017;-70
2022/09/03 01:49:21;;;;;;;0.98;0.90;;;;;;;;;;8288798;28;20095;-70
2022/09/03 01:53:41;;;;;;;4.35;0.98;;;;;;;;;;8284752;28;20417;-70
2022/09/03 01:57:54;;;;;;;4.00;1.00;;;;;;;;;;8248692;28;20635;-70
2022/09/03 02:02:00;;;;;;;0.80;0.80;;;;;;;;;;8285553;28;20030;-70
2022/09/03 02:06:02;;;;;;;2.90;0.80;;;;;;;;;;8287169;28;20030;-70
2022/09/03 02:10:04;;;;;;;3.95;0.90;;;;;;;;;;8288535;28;20013;-70
2022/09/03 02:14:05;;;;;;;3.83;0.90;;;;;;;;;;8286641;28;20022;-70
2022/09/03 02:18:09;;;;;;;1.10;0.90;;;;;;;;;;8285671;28;20131;-70
2022/09/03 02:22:11;;;;;;;1.15;1.02;;;;;;;;;;8283575;28;20026;-70
2022/09/03 02:26:13;;;;;;;0.80;0.80;;;;;;;;;;8286508;28;20230;-70
2022/09/03 02:30:13;;;;;;;3.42;0.80;;;;;;;;;;8275799;28;20102;-70
2022/09/03 02:34:13;;;;;;;2.23;0.80;;;;;;;;;;8286702;28;20069;-70
2022/09/03 02:38:15;;;;;;;0.80;0.80;;;;;;;;;;8287232;28;20284;-70
2022/09/03 02:42:17;;;;;;;0.82;0.82;;;;;;;;;;8286776;28;20894;-70
2022/09/03 02:46:20;;;;;;;1.77;0.90;;;;;;;;;;8284828;28;20068;-70
2022/09/03 02:50:20;;;;;;;1.20;0.90;;;;;;;;;;8284375;28;20052;-70
2022/09/03 02:54:20;;;;;;;1.33;0.90;;;;;;;;;;8280259;28;20026;-70
2022/09/03 02:58:21;;;;;;;2.67;0.90;;;;;;;;;;8286356;28;20039;-70
2022/09/03 03:02:21;;;;;;;1.17;0.95;;;;;;;;;;8284819;28;20037;-70
2022/09/03 03:06:21;;;;;;;1.27;0.90;;;;;;;;;;8282708;28;20096;-70
2022/09/03 03:10:21;;;;;;;0.80;0.80;;;;;;;;;;8285324;28;20036;-70
2022/09/03 03:14:21;;;;;;;1.48;0.90;;;;;;;;;;8283430;28;20037;-70
2022/09/03 03:18:22;;;;;;;1.10;1.00;;;;;;;;;;8283653;28;20069;-70
2022/09/03 03:22:22;;;;;;;3.00;1.05;;;;;;;;;;8285265;28;20812;-70
2022/09/03 03:26:23;;;;;;;1.70;0.90;;;;;;;;;;8282482;28;20456;-70
2022/09/03 03:30:23;;;;;;;1.92;0.80;;;;;;;;;;8284346;28;20044;-71
2022/09/03 03:34:23;;;;;;;1.88;0.90;;;;;;;;;;8283736;28;20033;-70
2022/09/03 03:38:23;;;;;;;1.05;0.80;;;;;;;;;;8282638;28;20033;-71
2022/09/03 03:42:24;;;;;;;1.63;1.02;;;;;;;;;;8281398;28;20029;-70
2022/09/03 03:46:24;;;;;;;1.88;0.73;;;;;;;;;;8284532;28;20111;-69
2022/09/03 03:50:25;;;;;;;1.27;0.80;;;;;;;;;;8280810;28;20028;-70
2022/09/03 03:54:25;;;;;;;1.75;0.80;;;;;;;;;;8283924;28;20013;-70
2022/09/03 03:58:25;;;;;;;0.90;0.85;;;;;;;;;;8269523;28;20026;-69
2022/09/03 04:02:25;;;;;;;0.85;0.85;;;;;;;;;;8281563;28;20145;-70
2022/09/03 04:06:26;;;;;;;0.93;0.77;;;;;;;;;;8271970;28;20075;-70
2022/09/03 04:10:26;;;;;;;0.82;0.82;;;;;;;;;;8281131;28;20132;-70
2022/09/03 04:14:26;;;;;;;0.88;0.88;;;;;;;;;;8283591;28;20040;-70
2022/09/03 04:18:26;;;;;;;0.98;0.90;;;;;;;;;;8283306;28;20037;-70
2022/09/03 04:22:28;;;;;;;2.70;1.30;;;;;;;;;;8283613;28;20057;-70
2022/09/03 04:26:32;;;;;;;2.83;1.00;;;;;;;;;;8272571;28;20049;-70
2022/09/03 04:30:32;;;;;;;0.95;0.80;;;;;;;;;;8281011;28;20025;-70
2022/09/03 04:34:32;;;;;;;2.15;1.10;;;;;;;;;;8281710;28;20437;-70
2022/09/03 04:38:33;;;;;;;0.90;0.90;;;;;;;;;;8280359;28;20045;-70
2022/09/03 04:42:33;;;;;;;1.17;0.80;;;;;;;;;;8281082;28;20087;-70
2022/09/03 04:46:34;;;;;;;1.20;1.02;;;;;;;;;;8279582;28;20790;-70
2022/09/03 04:50:34;;;;;;;1.30;0.97;;;;;;;;;;8279960;28;20068;-69
2022/09/03 04:54:34;;;;;;;1.35;1.08;;;;;;;;;;8280536;28;20308;-70
2022/09/03 04:58:34;;;;;;;0.97;0.93;;;;;;;;;;8282341;28;20911;-69
2022/09/03 05:02:35;;;;;;;3.53;1.10;;;;;;;;;;8279572;28;20803;-70
2022/09/03 05:06:36;;;;;;;2.93;1.30;;;;;;;;;;8269282;28;20026;-70
2022/09/03 05:10:36;;;;;;;2.05;1.20;;;;;;;;;;8280718;28;20083;-71
2022/09/03 05:14:36;;;;;;;1.35;1.10;;;;;;;;;;8281027;28;20033;-71
2022/09/03 05:18:36;;;;;;;2.95;1.38;;;;;;;;;;8278927;28;20029;-71
2022/09/03 05:22:37;;;;;;;2.28;1.20;;;;;;;;;;8279398;28;20029;-70
2022/09/03 05:26:38;;;;;;;4.55;1.55;;;;;;;;;;8280367;28;20048;-71
2022/09/03 05:30:38;;;;;;;3.40;1.40;;;;;;;;;;8280991;28;20808;-69
2022/09/03 05:34:38;;;;;;;4.60;1.50;;;;;;;;;;8278339;28;20537;-70
2022/09/03 05:38:38;;;;;;;1.80;1.25;;;;;;;;;;8279878;28;20040;-70
2022/09/03 05:42:39;;;;;;;1.55;1.35;;;;;;;;;;8279236;28;21061;-70
2022/09/03 05:46:39;;;;;;;1.80;1.50;;;;;;;;;;8272697;28;20427;-71
2022/09/03 05:50:39;;;;;;;2.15;1.50;;;;;;;;;;8278683;28;20029;-72
2022/09/03 05:54:39;;;;;;;4.97;1.60;;;;;;;;;;8281306;28;20017;-71
2022/09/03 05:58:42;;;;;;;3.35;1.50;;;;;;;;;;8282592;28;20030;-72
2022/09/03 06:02:42;;;;;;;4.85;1.70;;;;;;;;;;8281483;28;20029;-73
2022/09/03 06:06:43;;;;;;;3.30;1.37;;;;;;;;;;8282155;28;20017;-72
2022/09/03 06:10:43;;;;;;;3.17;1.48;;;;;;;;;;8283912;28;21176;-72
2022/09/03 06:14:44;;;;;;;6.20;1.73;;;;;;;;;;8284480;28;20037;-72
2022/09/03 06:18:44;;;;;;;6.22;1.60;;;;;;;;;;8287342;28;20038;-72
2022/09/03 06:22:47;;;;;;;7.07;1.83;;;;;;;;;;8284598;28;20057;-72
2022/09/03 06:26:48;;;;;;;5.03;2.15;;;;;;;;;;8285752;28;20026;-71
2022/09/03 06:30:48;;;;;;;5.57;1.70;;;;;;;;;;8285700;28;20384;-72
2022/09/03 06:34:48;;;;;;;3.20;1.70;;;;;;;;;;8285931;28;20803;-72
2022/09/03 06:38:52;;;;;;;1.90;1.47;;;;;;;;;;8270431;28;20033;-72
2022/09/03 06:43:00;;;;;;;2.05;1.60;;;;;;;;;;8286266;28;20029;-72
2022/09/03 06:47:00;;;;;;;2.38;1.42;;;;;;;;;;8271136;28;20392;-72
2022/09/03 06:51:02;;;;;;;3.35;1.60;;;;;;;;;;8284597;28;20032;-72
2022/09/03 06:55:02;;;;;;;3.20;1.65;;;;;;;;;;8284123;28;20036;-71
2022/09/03 06:59:04;;;;;;;3.50;1.50;;;;;;;;;;8285660;28;20133;-72
2022/09/03 07:03:04;;;;;;;1.80;1.55;;;;;;;;;;8285876;28;20276;-72
2022/09/03 07:07:04;;;;;;;2.92;1.77;;;;;;;;;;8284744;28;20035;-72
2022/09/03 07:11:08;;;;;;;1.97;1.80;;;;;;;;;;8284858;28;20119;-72
2022/09/03 07:15:08;;;;;;;4.40;1.92;;;;;;;;;;8281829;28;20037;-71
2022/09/03 07:19:09;;;;;;;3.30;2.10;;;;;;;;;;8285172;28;20719;-71
2022/09/03 07:23:09;;;;;;;3.58;1.60;;;;;;;;;;8282973;28;20018;-72
2022/09/03 07:27:09;;;;;;;4.15;1.80;;;;;;;;;;8284882;28;20033;-72
2022/09/03 07:31:14;;;;;;;2.97;1.73;;;;;;;;;;8284065;28;20029;-72
2022/09/03 07:35:14;;;;;;;5.82;2.08;;;;;;;;;;8284691;28;20033;-71
2022/09/03 07:39:16;;;;;;;3.92;2.15;;;;;;;;;;8282846;28;20674;-72
2022/09/03 07:43:17;;;;;;;4.50;2.00;;;;;;;;;;8286152;28;20115;-71
2022/09/03 07:47:18;;;;;;;4.30;2.20;;;;;;;;;;8283065;28;20111;-72
2022/09/03 07:51:20;;;;;;;2.67;1.90;;;;;;;;;;8273124;28;20028;-72
2022/09/03 07:55:20;;;;;;;4.63;1.85;;;;;;;;;;8285232;28;20036;-72
2022/09/03 07:59:21;;;;;;;2.85;1.98;;;;;;;;;;8284773;28;20636;-72
2022/09/03 08:03:21;;;;;;;2.55;2.03;;;;;;;;;;8284019;28;20844;-71
2022/09/03 08:07:22;;;;;;;2.30;2.10;;;;;;;;;;8282931;28;20036;-72
2022/09/03 08:11:22;;;;;;;2.38;2.15;;;;;;;;;;8281884;28;20018;-72
2022/09/03 08:15:23;;;;;;;3.92;2.30;;;;;;;;;;8282850;28;20041;-72
2022/09/03 08:19:24;;;;;;;2.83;2.45;;;;;;;;;;8284237;28;20164;-72
2022/09/03 08:23:24;;;;;;;3.35;2.30;;;;;;;;;;8267339;28;20021;-71
2022/09/03 08:27:25;;;;;;;2.97;2.20;;;;;;;;;;8282990;28;20458;-70
2022/09/03 08:31:26;;;;;;;3.00;2.35;;;;;;;;;;8271482;28;20045;-71
2022/09/03 08:35:27;;;;;;;3.00;2.20;;;;;;;;;;8284433;28;20047;-71
2022/09/03 08:39:30;;;;;;;4.20;2.20;;;;;;;;;;8281486;28;20033;-72
2022/09/03 08:43:31;;;;;;;4.65;2.20;;;;;;;;;;8283658;28;20068;-70
2022/09/03 08:48:10;;;;;;;3.03;2.30;;;;;;;;;;8281982;28;20041;-70
2022/09/03 08:52:20;;;;;;;4.15;2.30;;;;;;;;;;8130305;29;20055;-71
2022/09/03 08:56:23;;;;;;;2.63;2.42;;;;;;;;;;8205795;28;20045;-71
2022/09/03 09:00:23;;;;;;;5.00;2.60;;;;;;;;;;8279426;28;20037;-71
2022/09/03 09:04:42;;;;;;;4.15;2.40;;;;;;;;;;8284391;28;20037;-72
2022/09/03 09:08:55;;;;;;;3.20;2.17;;;;;;;;;;8282476;28;20061;-72
2022/09/03 09:12:58;;;;;;;6.72;2.95;;;;;;;;;;8281267;28;20058;-72
2022/09/03 09:17:04;;;;;;;2.50;2.30;;;;;;;;;;8280591;28;20081;-72
2022/09/03 09:21:11;;;;;;;3.70;2.53;;;;;;;;;;8280589;28;20500;-71
2022/09/03 09:25:14;;;;;;;5.00;2.60;;;;;;;;;;8281637;28;20036;-71
2022/09/03 09:29:15;;;;;;;5.20;2.70;;;;;;;;;;8284252;28;20850;-71
2022/09/03 09:33:16;;;;;;;3.42;2.22;;;;;;;;;;8283421;28;20066;-72
2022/09/03 09:37:16;;;;;;;3.67;2.50;;;;;;;;;;8286654;28;20037;-72
2022/09/03 09:41:18;;;;;;;7.10;2.20;;;;;;;;;;8286773;28;20538;-72
2022/09/03 09:45:18;;;;;;;3.22;2.50;;;;;;;;;;8288316;28;21088;-72
2022/09/03 09:49:25;;;;;;;3.05;2.60;;;;;;;;;;8286498;28;20175;-71
2022/09/03 09:53:29;;;;;;;3.60;2.30;;;;;;;;;;8287593;28;20876;-72
2022/09/03 09:57:29;;;;;;;3.30;2.42;;;;;;;;;;8287119;28;20127;-73
2022/09/03 10:01:30;;;;;;;2.13;1.95;;;;;;;;;;8289069;28;20041;-72
2022/09/03 10:05:36;;;;;;;2.60;2.35;;;;;;;;;;8289500;28;20070;-72
2022/09/03 10:09:36;;;;;;;2.92;2.58;;;;;;;;;;8288180;28;20026;-72
2022/09/03 10:13:42;;;;;;;2.73;2.50;;;;;;;;;;8273670;28;20037;-71
2022/09/03 10:17:51;;;;;;;3.67;2.42;;;;;;;;;;8287189;28;20056;-72
2022/09/03 10:22:04;;;;;;;3.20;2.38;;;;;;;;;;8285525;28;20864;-72
2022/09/03 10:26:10;;;;;;;3.80;2.65;;;;;;;;;;8284314;28;20021;-72
2022/09/03 10:30:14;;;;;;;5.43;2.60;;;;;;;;;;8286683;28;20144;-72
2022/09/03 10:34:21;;;;;;;3.70;2.97;;;;;;;;;;8286944;28;20021;-72
2022/09/03 10:38:24;;;;;;;4.10;3.22;;;;;;;;;;8286986;28;20099;-72
2022/09/03 10:42:24;;;;;;;;;;;;;;;;;;8285390;28;20029;-71
2022/09/03 10:46:29;;;;;;;4.43;2.97;;;;;;;;;;8282572;28;20305;-71
2022/09/03 10:50:40;;;;;;;4.32;3.30;;;;;;;;;;8287772;28;20029;-72
2022/09/03 10:54:43;;;;;;;3.17;2.88;;;;;;;;;;8287473;28;20120;-71
2022/09/03 10:58:44;;;;;;;;;;;;;;;;;;8287672;28;20077;-71
2022/09/03 11:03:03;;;;;;;3.15;2.17;;;;;;;;;;8275450;28;19917;-71
2022/09/03 11:07:04;;;;;;;3.22;2.30;;;;;;;;;;8270690;28;20021;-71
2022/09/03 11:11:05;;;;;;;2.22;1.98;;;;;;;;;;8285410;28;20029;-71
2022/09/03 11:15:17;;;;;;;2.40;2.20;;;;;;;;;;8287957;28;20041;-71
2022/09/03 11:19:20;;;;;;;4.22;2.17;;;;;;;;;;8286988;28;21361;-71
2022/09/03 11:23:20;;;;;;;2.47;2.20;;;;;;;;;;8285867;28;20021;-71
2022/09/03 11:27:47;;;;;;;2.85;2.60;;;;;;;;;;8284270;28;20033;-71
2022/09/03 11:32:09;;;;;;;2.92;2.72;;;;;;;;;;8274577;28;20128;-70
2022/09/03 11:36:10;;;;;;;2.88;2.08;;;;;;;;;;8285428;28;20025;-71
2022/09/03 11:40:20;;;;;;;2.70;2.50;;;;;;;;;;8286184;28;20075;-71
2022/09/03 11:44:20;;;;;;;2.90;2.65;;;;;;;;;;8284486;28;20018;-71
2022/09/03 11:48:35;;;;;;;3.20;2.90;;;;;;;;;;8284116;28;20494;-71
2022/09/03 11:52:39;;;;;;;2.30;2.20;;;;;;;;;;8284229;28;20029;-70
2022/09/03 11:56:40;;;;;;;3.60;3.30;;;;;;;;;;8285432;28;20076;-70
2022/09/03 12:00:43;;;;;;;3.58;2.72;;;;;;;;;;8270319;28;20444;-71
2022/09/03 12:04:47;;;;;;;5.50;3.08;;;;;;;;;;8283121;28;20140;-71
2022/09/03 12:08:56;;;;;;;3.20;2.70;;;;;;;;;;8284599;28;20098;-71
2022/09/03 12:13:02;;;;;;;2.72;2.50;;;;;;;;;;8284683;28;20061;-71
2022/09/03 12:17:03;;;;;;;3.00;2.80;;;;;;;;;;8283714;28;20030;-71
2022/09/03 12:21:04;;;;;;;2.55;2.13;;;;;;;;;;8282052;28;20028;-70
2022/09/03 12:25:09;;;;;;;3.72;2.17;;;;;;;;;;8282921;28;20037;-71
2022/09/03 12:29:26;;;;;;;2.75;2.55;;;;;;;;;;8269339;28;20022;-70
2022/09/03 12:33:27;;;;;;;2.70;2.47;;;;;;;;;;8283743;28;20091;-71
2022/09/03 12:37:34;;;;;;;2.90;2.63;;;;;;;;;;8282925;28;20136;-71
2022/09/03 12:41:34;;;;;;;3.00;2.70;;;;;;;;;;8281397;28;20040;-71
2022/09/03 12:45:41;;;;;;;2.90;2.70;;;;;;;;;;8280596;28;20037;-71
2022/09/03 12:49:42;;;;;;;3.05;2.78;;;;;;;;;;8284307;28;20033;-71
2022/09/03 12:53:43;;;;;;;2.85;2.65;;;;;;;;;;8279964;28;21080;-71
2022/09/03 12:57:48;;;;;;;2.65;2.45;;;;;;;;;;8282953;28;20066;-71
2022/09/03 13:01:51;;;;;;;3.00;2.08;;;;;;;;;;8280534;28;20065;-70
2022/09/03 13:05:59;;;;;;;3.00;2.45;;;;;;;;;;8282027;28;20037;-71
2022/09/03 13:10:07;;;;;;;2.40;2.20;;;;;;;;;;8289717;28;20029;-71
2022/09/03 13:14:11;;;;;;;3.20;2.40;;;;;;;;;;8288509;28;20026;-71
2022/09/03 13:18:11;;;;;;;2.08;1.88;;;;;;;;;;8289226;28;20033;-71
2022/09/03 13:22:14;;;;;;;2.55;1.60;;;;;;;;;;8288173;28;20121;-70
2022/09/03 13:26:23;;;;;;;1.88;1.70;;;;;;;;;;8289554;28;20021;-71
2022/09/03 13:30:37;;;;;;;1.70;1.60;;;;;;;;;;8272782;28;20025;-71
2022/09/03 13:34:41;;;;;;;1.50;1.40;;;;;;;;;;8289649;28;20025;-71
2022/09/03 13:39:05;;;;;;;2.35;1.40;;;;;;;;;;8287508;28;20032;-71
2022/09/03 13:43:16;;;;;;;1.40;1.30;;;;;;;;;;8286253;28;20136;-71
2022/09/03 13:47:26;;;;;;;1.65;1.50;;;;;;;;;;8287221;28;20045;-71
2022/09/03 13:51:29;;;;;;;1.20;1.20;;;;;;;;;;8287600;28;20049;-71
2022/09/03 13:55:36;;;;;;;1.83;1.13;;;;;;;;;;8286902;28;20019;-71
2022/09/03 13:59:51;;;;;;;2.83;1.40;;;;;;;;;;8286997;28;20159;-70
2022/09/03 14:03:56;;;;;;;1.52;1.42;;;;;;;;;;8286525;28;20124;-71
2022/09/03 14:07:56;;;;;;;1.40;1.20;;;;;;;;;;8286227;28;21276;-71
2022/09/03 14:12:17;;;;;;;1.45;1.30;;;;;;;;;;8286575;28;20024;-72
2022/09/03 14:16:27;;;;;;;1.52;1.38;;;;;;;;;;8262877;28;20451;-71
2022/09/03 14:20:28;;;;;;;3.95;1.42;;;;;;;;;;8285548;28;20816;-71
2022/09/03 14:24:47;;;;;;;1.70;1.60;;;;;;;;;;8288123;28;20398;-71
2022/09/03 14:28:48;;;;;;;1.60;1.50;;;;;;;;;;8287676;28;20021;-71
2022/09/03 14:32:52;;;;;;;1.55;1.45;;;;;;;;;;8287570;28;20228;-71
2022/09/03 14:37:11;;;;;;;1.65;1.55;;;;;;;;;;8285678;28;20017;-70
2022/09/03 14:41:11;;;;;;;3.33;2.08;;;;;;;;;;8282910;28;20107;-71
2022/09/03 14:45:11;;;;;;;3.10;2.08;;;;;;;;;;8285877;28;20025;-71
2022/09/03 14:49:27;;;;;;;2.55;1.70;;;;;;;;;;8285155;28;20621;-71
2022/09/03 14:53:41;;;;;;;1.80;1.70;;;;;;;;;;8287014;28;20052;-71
2022/09/03 14:57:47;;;;;;;3.65;1.88;;;;;;;;;;8287678;28;20055;-71
2022/09/03 15:01:53;;;;;;;2.00;1.80;;;;;;;;;;8285252;28;20498;-71
2022/09/03 15:06:16;;;;;;;7.50;2.10;;;;;;;;;;8286547;28;20740;-71
2022/09/03 15:10:23;;;;;;;2.10;1.90;;;;;;;;;;8273128;28;20799;-71
2022/09/03 15:14:26;;;;;;;1.52;1.42;;;;;;;;;;8283071;28;20041;-71
2022/09/03 15:18:41;;;;;;;1.70;1.40;;;;;;;;;;8284219;28;20045;-71
2022/09/03 15:22:41;;;;;;;1.00;1.00;;;;;;;;;;8284540;28;20951;-71
2022/09/03 15:26:41;;;;;;;1.85;0.70;;;;;;;;;;8285160;28;20034;-69
2022/09/03 15:30:51;;;;;;;1.33;0.80;;;;;;;;;;8282678;28;20444;-71
2022/09/03 15:35:03;;;;;;;3.20;0.90;;;;;;;;;;8275579;28;20032;-71
2022/09/03 15:39:09;;;;;;;1.05;0.73;;;;;;;;;;8284797;28;20103;-71
2022/09/03 15:43:22;;;;;;;1.83;0.70;;;;;;;;;;8284540;28;20033;-71
2022/09/03 15:47:35;;;;;;;3.65;0.80;;;;;;;;;;8284327;28;20049;-71
2022/09/03 15:51:42;;;;;;;4.63;0.80;;;;;;;;;;8261039;28;20390;-71
2022/09/03 15:55:43;;;;;;;5.32;0.80;;;;;;;;;;8282995;28;20034;-71
2022/09/03 16:00:06;;;;;;;2.03;0.80;;;;;;;;;;8286030;28;20025;-71
2022/09/03 16:04:15;;;;;;;5.30;0.90;;;;;;;;;;8282228;28;20072;-71
2022/09/03 16:08:21;;;;;;;4.97;1.20;;;;;;;;;;8284976;28;20538;-72
2022/09/03 16:12:27;;;;;;;1.73;0.90;;;;;;;;;;8282505;28;20024;-72
2022/09/03 16:16:30;;;;;;;2.72;0.73;;;;;;;;;;8283079;28;20044;-72
2022/09/03 16:20:54;;;;;;;3.30;1.10;;;;;;;;;;8283293;28;20044;-72
2022/09/03 16:24:59;;;;;;;1.88;0.82;;;;;;;;;;8285417;28;20032;-72
2022/09/03 16:29:19;;;;;;;1.40;0.80;;;;;;;;;;8280668;28;20018;-73
2022/09/03 16:33:29;;;;;;;2.47;0.82;;;;;;;;;;8281135;28;20057;-72
2022/09/03 16:37:38;;;;;;;4.72;0.93;;;;;;;;;;8272333;28;20492;-73
2022/09/03 16:41:42;;;;;;;3.40;0.98;;;;;;;;;;8281599;28;20487;-73
2022/09/03 16:46:08;;;;;;;2.00;1.00;;;;;;;;;;8267679;28;20556;-72
2022/09/03 16:50:39;;;;;;;2.30;1.00;;;;;;;;;;8253784;28;20048;-72
2022/09/03 16:55:02;;;;;;;0.80;0.80;;;;;;;;;;8285062;28;20037;-73
2022/09/03 16:59:02;;;;;;;1.67;1.00;;;;;;;;;;8282350;28;20049;-73
2022/09/03 17:03:02;;;;;;;3.65;1.75;;;;;;;;;;8283241;28;20067;-72
2022/09/03 17:07:13;;;;;;;5.22;1.30;;;;;;;;;;8280927;28;20035;-72
2022/09/03 17:11:24;;;;;;;3.35;1.30;;;;;;;;;;8281317;28;20187;-73
2022/09/03 17:15:33;;;;;;;1.98;1.27;;;;;;;;;;8282035;28;20093;-72
2022/09/03 17:19:48;;;;;;;2.08;1.27;;;;;;;;;;8283854;28;20017;-72
2022/09/03 17:24:06;;;;;;;2.80;1.20;;;;;;;;;;8281865;28;20096;-73
2022/09/03 17:28:08;;;;;;;6.32;1.10;;;;;;;;;;8280117;28;20139;-72
2022/09/03 17:32:19;;;;;;;2.95;0.80;;;;;;;;;;8281066;28;20034;-72
2022/09/03 17:36:30;;;;;;;0.98;0.80;;;;;;;;;;8283068;28;20059;-71
2022/09/03 17:40:43;;;;;;;3.15;1.00;;;;;;;;;;8283030;28;20030;-72
2022/09/03 17:44:43;;;;;;;1.67;0.98;;;;;;;;;;8279103;28;20025;-72
2022/09/03 17:48:50;;;;;;;2.58;1.00;;;;;;;;;;8282419;28;20048;-71
2022/09/03 17:52:54;;;;;;;3.00;0.95;;;;;;;;;;8276195;28;20110;-72
2022/09/03 17:56:54;;;;;;;;;;;;;;;;;;8288913;28;21139;-72
2022/09/03 18:01:01;;;;;;;1.83;0.88;;;;;;;;;;8282949;28;19948;-72
2022/09/03 18:05:06;;;;;;;0.98;0.85;;;;;;;;;;8284218;28;20499;-72
2022/09/03 18:09:29;;;;;;;5.68;1.05;;;;;;;;;;8283791;28;20091;-72
2022/09/03 18:13:38;;;;;;;2.75;1.23;;;;;;;;;;8271129;28;20847;-72
2022/09/03 18:17:42;;;;;;;1.38;1.00;;;;;;;;;;8284266;28;20034;-71
2022/09/03 20:12:26;;;;;;;1.40;1.30;;;;;;;;;;8283343;28;20068;-71
2022/09/03 20:16:36;;;;;;;2.78;1.60;;;;;;;;;;8287090;28;20045;-72
2022/09/03 20:20:49;;;;;;;1.60;1.50;;;;;;;;;;8267207;28;20678;-71
2022/09/03 20:25:03;;;;;;;2.15;1.50;;;;;;;;;;8284196;28;20036;-72
2022/09/03 20:29:06;;;;;;;2.55;1.40;;;;;;;;;;8270056;28;20049;-72
2022/09/03 20:33:13;;;;;;;1.55;1.30;;;;;;;;;;8274466;28;20589;-71
2022/09/03 20:37:23;;;;;;;1.83;1.60;;;;;;;;;;8283422;28;20376;-71
2022/09/03 20:41:23;;;;;;;1.50;1.33;;;;;;;;;;8267727;28;20036;-71
2022/09/03 20:45:30;;;;;;;2.00;1.80;;;;;;;;;;8282116;28;20129;-71
2022/09/03 20:49:44;;;;;;;1.85;1.60;;;;;;;;;;8283992;28;20493;-71
2022/09/03 20:53:48;;;;;;;2.20;2.00;;;;;;;;;;8282842;28;20036;-70
2022/09/03 20:57:52;;;;;;;2.85;2.58;;;;;;;;;;8283899;28;20101;-71
2022/09/03 21:02:19;;;;;;;2.80;2.60;;;;;;;;;;8281740;28;20042;-71
2022/09/03 21:06:22;;;;;;;2.58;2.38;;;;;;;;;;8284011;28;20099;-71
2022/09/03 21:10:22;;;;;;;3.25;2.70;;;;;;;;;;8284992;28;20026;-71
2022/09/03 21:14:30;;;;;;;3.07;2.77;;;;;;;;;;8282397;28;20037;-71
2022/09/03 21:18:40;;;;;;;2.67;2.47;;;;;;;;;;8273712;28;20068;-71
2022/09/03 21:23:00;;;;;;;2.90;2.70;;;;;;;;;;8279668;28;20127;-71
2022/09/03 21:27:03;;;;;;;4.93;2.63;;;;;;;;;;8239176;28;20172;-71
2022/09/03 21:31:23;;;;;;;5.78;2.78;;;;;;;;;;8285626;28;20030;-71
2022/09/03 21:35:26;;;;;;;3.25;2.40;;;;;;;;;;8288151;28;20136;-71
2022/09/03 21:39:45;;;;;;;2.67;2.47;;;;;;;;;;8286634;28;20509;-71
2022/09/03 21:43:55;;;;;;;2.75;2.55;;;;;;;;;;8288914;28;20610;-71
2022/09/03 21:48:01;;;;;;;2.95;2.60;;;;;;;;;;8287653;28;20491;-72
2022/09/03 21:52:02;;;;;;;3.35;2.30;;;;;;;;;;8286696;28;20875;-71
2022/09/03 21:56:05;;;;;;;2.50;2.30;;;;;;;;;;8287282;28;20021;-72
2022/09/03 22:00:17;;;;;;;3.00;2.20;;;;;;;;;;8287268;28;20750;-72
2022/09/03 22:04:17;;;;;;;3.53;2.55;;;;;;;;;;8285722;28;20056;-71
2022/09/03 22:08:35;;;;;;;2.45;2.25;;;;;;;;;;8286155;28;20025;-72
2022/09/03 22:12:54;;;;;;;2.72;2.13;;;;;;;;;;8286538;28;20033;-71
2022/09/03 22:17:09;;;;;;;3.70;2.60;;;;;;;;;;8287629;28;20042;-72
2022/09/03 22:21:12;;;;;;;3.80;2.50;;;;;;;;;;8286076;28;20035;-71
2022/09/03 22:25:28;;;;;;;3.22;2.53;;;;;;;;;;8288303;28;20027;-71
2022/09/03 22:29:30;;;;;;;3.03;2.40;;;;;;;;;;8283756;28;20519;-71
2022/09/03 22:33:31;;;;;;;2.67;2.47;;;;;;;;;;8278091;28;20598;-72
2022/09/03 22:37:31;;;;;;;2.60;2.40;;;;;;;;;;8284947;28;20025;-71
2022/09/03 22:41:34;;;;;;;3.63;2.40;;;;;;;;;;8271343;28;20032;-72
2022/09/03 22:45:39;;;;;;;4.43;2.38;;;;;;;;;;8285230;28;20281;-71
2022/09/03 22:49:50;;;;;;;3.60;2.15;;;;;;;;;;8287017;28;20034;-72
2022/09/03 22:54:29;;;;;;;3.75;2.20;;;;;;;;;;8283799;28;20560;-71
2022/09/03 22:58:31;;;;;;;2.40;2.20;;;;;;;;;;8139651;29;20947;-71
2022/09/03 23:02:32;;;;;;;2.65;2.40;;;;;;;;;;8202535;28;20052;-71
2022/09/03 23:06:34;;;;;;;2.53;2.33;;;;;;;;;;8282744;28;20731;-71
2022/09/03 23:10:41;;;;;;;2.47;2.15;;;;;;;;;;8275600;28;20033;-71
2022/09/03 23:14:55;;;;;;;2.33;2.13;;;;;;;;;;8282594;28;20053;-71
2022/09/03 23:18:56;;;;;;;2.90;2.10;;;;;;;;;;8283679;28;20040;-72
2022/09/03 23:23:07;;;;;;;4.00;2.65;;;;;;;;;;8284807;28;20044;-71
2022/09/03 23:27:09;;;;;;;3.03;2.50;;;;;;;;;;8282419;28;20248;-71
2022/09/03 23:31:24;;;;;;;2.65;2.45;;;;;;;;;;8282450;28;20116;-71
2022/09/03 23:35:28;;;;;;;4.95;2.75;;;;;;;;;;8283959;28;20030;-71
2022/09/03 23:39:29;;;;;;;2.83;2.63;;;;;;;;;;8285377;28;20065;-72
2022/09/03 23:43:36;;;;;;;3.00;2.58;;;;;;;;;;8284490;28;20036;-71
2022/09/03 23:47:43;;;;;;;3.38;2.50;;;;;;;;;;8283096;28;20068;-71
2022/09/03 23:51:59;;;;;;;2.75;2.10;;;;;;;;;;8283944;28;20924;-72
2022/09/03 23:56:02;;;;;;;2.92;2.67;;;;;;;;;;8273037;28;20058;-71
